Elmvale, Canada
Current Conditions -  °F | °C
As of 11:00 AM on Thursday 29 Jan 2015 (Local Time) from CYBN Reporting Station
Overcast Overcast  
Wind Chill: 20°   Ceiling: 4100
Heat Index: 28°   Visibility: 9mi
Dew Point: 14°   Wind: 9mph
Humidity: 55%   Direction: 140°SE
Pressure: 29.8"   Gusts: NA
Location:  44.58°N, 79.87°W
Report Text: CYBN 291600Z AUTO 14008KT 9SM OVC041 OVC093 M02/M10 A2980 RMKSLP107
Loading
Personal Weather Stations






























Interactive Weather Map New forecast layout! Learn more

10-Day Weather Forecast

Advertisements
Track Severe Weather on mobile